^^
Station Historical Data
Daily Summary for January 13, 2018 Units:  Metric    English   Both
« Previous Day
Next Day »
Daily Weekly Monthly Yearly Custom
  High: Low: Average:
Temperature: -17.8 °C 15.7 °C 24.4 °C
Dew Point: -17.8 °C 6.6 °C 10.8 °C
Humidity: Humidity% 21% 49%
Wind Speed: 0km/h 0km/h 1.9km/h
Wind Gust: 0km/h - -
Wind- - SE
Pressure: 0 hPa 1003.3 hPa -
Precipitation: 1.27 mm    
Historical Graphs
 
 
Tabular Data for January 13, 2018
Time Temperature Dew Point Pressure Wind Wind Speed Wind Gust Humidity Rainfall Rate (Hourly) solar Conditions
-17.8 °C -17.8 °C 0 hPa Calm     Humidity% 0 mm SolarRadiationWatts/m^2 W/m2 Conditions
00:00 18.2 °C 13.7 °C 1009 hPa Calm   4.8 km/h 75% 0.51 mm 0.0 W/m2
00:05 18.3 °C 13.8 °C 1008.7 hPa South 1.4 km/h 6.4 km/h 75% 0.51 mm 0.0 W/m2
00:10 18.3 °C 14 °C 1008.7 hPa Calm   1.6 km/h 76% 0.51 mm 0.0 W/m2
00:21 18.2 °C 14.3 °C 1008.4 hPa SE 7.9 km/h 11.3 km/h 78% 0.76 mm 0.0 W/m2
00:33 17.8 °C 14.7 °C 1008.4 hPa Calm   3.2 km/h 82% 1.27 mm 0.0 W/m2
00:38 17.6 °C 14.7 °C 1008.4 hPa Calm   3.2 km/h 83% 1.27 mm 0.0 W/m2
00:43 17.6 °C 15 °C 1008.4 hPa Calm     85% 1.27 mm 0.0 W/m2
00:48 17.4 °C 15 °C 1008.4 hPa Calm     86% 1.27 mm 0.0 W/m2
00:54 17.4 °C 15.2 °C 1008.4 hPa Calm     87% 1.27 mm 0.0 W/m2
01:04 17.4 °C 15.6 °C 1008.4 hPa Calm     89% 1.27 mm 0.0 W/m2
01:09 17.4 °C 15.6 °C 1008.4 hPa Calm     89% 1.27 mm 0.0 W/m2
01:18 17.6 °C 15 °C 1008 hPa Calm   1.6 km/h 85% 0.51 mm 0.0 W/m2
01:23 17.6 °C 14.1 °C 1008 hPa SW 1.4 km/h 4.8 km/h 80% 0.25 mm 0.0 W/m2
01:28 17.8 °C 13.7 °C 1007.7 hPa Calm   6.4 km/h 77% 0 mm 0.0 W/m2
01:33 17.8 °C 13.9 °C 1007.7 hPa ESE 3.2 km/h 3.2 km/h 78% 0 mm 0.0 W/m2
01:39 17.7 °C 14.2 °C 1007.7 hPa Calm     80% 0 mm 0.0 W/m2
01:46 17.6 °C 14.5 °C 1007.7 hPa Calm   1.6 km/h 82% 0 mm 0.0 W/m2
02:00 17.1 °C 14.2 °C 1007.7 hPa East 1.4 km/h 1.6 km/h 83% 0 mm 0.0 W/m2
02:05 17.1 °C 14.4 °C 1007.7 hPa Calm     84% 0 mm 0.0 W/m2
02:11 17.1 °C 14.6 °C 1007.3 hPa Calm     85% 0 mm 0.0 W/m2
02:16 17 °C 14.8 °C 1007.3 hPa Calm     87% 0 mm 0.0 W/m2
02:21 17 °C 14.8 °C 1007.3 hPa Calm     87% 0 mm 0.0 W/m2
02:26 16.9 °C 14.7 °C 1007.3 hPa Calm   1.6 km/h 87% 0 mm 0.0 W/m2
02:35 16.9 °C 14.7 °C 1007 hPa Calm   1.6 km/h 87% 0 mm 0.0 W/m2
02:40 16.9 °C 14.5 °C 1007 hPa ESE 1.4 km/h 1.6 km/h 86% 0 mm 0.0 W/m2
02:46 16.8 °C 14.3 °C 1007 hPa Calm   1.6 km/h 85% 0 mm 0.0 W/m2
02:51 16.7 °C 14.2 °C 1007 hPa Calm   1.6 km/h 85% 0 mm 0.0 W/m2
02:56 16.7 °C 14 °C 1007 hPa Calm   4.8 km/h 84% 0 mm 0.0 W/m2
03:01 16.7 °C 14 °C 1007 hPa Calm     84% 0 mm 0.0 W/m2
03:06 16.7 °C 14 °C 1007 hPa Calm   3.2 km/h 84% 0 mm 0.0 W/m2
03:14 16.6 °C 13.9 °C 1006.7 hPa Calm   1.6 km/h 84% 0 mm 0.0 W/m2
03:19 16.5 °C 13.6 °C 1007 hPa Calm   3.2 km/h 83% 0 mm 0.0 W/m2
03:24 16.4 °C 13.5 °C 1006.7 hPa Calm   1.6 km/h 83% 0 mm 0.0 W/m2
03:30 16.4 °C 13.5 °C 1007 hPa Calm   3.2 km/h 83% 0 mm 0.0 W/m2
03:35 16.3 °C 13.6 °C 1007 hPa Calm     84% 0 mm 0.0 W/m2
03:40 16.2 °C 13.3 °C 1007 hPa Calm     83% 0 mm 0.0 W/m2
03:45 16.2 °C 13.3 °C 1007 hPa Calm     83% 0 mm 0.0 W/m2
03:50 16.1 °C 13.2 °C 1007 hPa Calm     83% 0 mm 0.0 W/m2
03:55 16.1 °C 13.2 °C 1007 hPa Calm     83% 0 mm 0.0 W/m2
04:01 16 °C 13.3 °C 1007 hPa Calm     84% 0 mm 0.0 W/m2
04:09 15.9 °C 13 °C 1007 hPa Calm   1.6 km/h 83% 0 mm 0.0 W/m2
04:14 15.9 °C 13 °C 1006.7 hPa Calm   1.6 km/h 83% 0 mm 0.0 W/m2
04:19 15.9 °C 13 °C 1007 hPa Calm     83% 0 mm 0.0 W/m2
04:26 15.9 °C 13 °C 1007 hPa Calm   3.2 km/h 83% 0 mm 0.0 W/m2
04:31 15.9 °C 12.8 °C 1007 hPa Calm   1.6 km/h 82% 0 mm 0.0 W/m2
04:37 16.1 °C 13.4 °C 1007 hPa Calm     84% 0 mm 0.0 W/m2
04:48 16.1 °C 13.6 °C 1007.3 hPa Calm   1.6 km/h 85% 0 mm 0.0 W/m2
04:53 16.1 °C 13.2 °C 1007.3 hPa Calm   1.6 km/h 83% 0 mm 0.0 W/m2
04:58 16 °C 13.3 °C 1007.3 hPa Calm     84% 0 mm 0.0 W/m2
05:03 15.9 °C 13 °C 1007.3 hPa Calm     83% 0 mm 0.0 W/m2
05:12 15.9 °C 13 °C 1007.3 hPa Calm   1.6 km/h 83% 0 mm 0.0 W/m2
05:17 15.9 °C 13 °C 1007.7 hPa Calm     83% 0 mm 0.0 W/m2
05:31 15.7 °C 12.8 °C 1007.7 hPa Calm     83% 0 mm 0.0 W/m2
05:37 15.7 °C 12.8 °C 1007.7 hPa East 4.8 km/h 4.8 km/h 83% 0 mm 0.0 W/m2
05:42 15.7 °C 13 °C 1008 hPa Calm     84% 0 mm 0.0 W/m2
05:47 15.7 °C 12.8 °C 1008 hPa Calm     83% 0 mm 0.0 W/m2
05:57 15.7 °C 13 °C 1008 hPa Calm     84% 0 mm 0.0 W/m2
06:02 15.7 °C 12.6 °C 1008.4 hPa Calm     82% 0 mm 0.0 W/m2
06:07 15.7 °C 12.6 °C 1008.4 hPa Calm   4.8 km/h 82% 0 mm 0.0 W/m2
06:12 15.7 °C 12.6 °C 1008.4 hPa SE 3.2 km/h 3.2 km/h 82% 0 mm 0.0 W/m2
06:18 15.7 °C 12.4 °C 1008.4 hPa Calm     81% 0 mm 0.0 W/m2
06:26 15.7 °C 12.4 °C 1008.4 hPa Calm   1.6 km/h 81% 0 mm 5.0 W/m2
06:31 15.7 °C 12.1 °C 1008.4 hPa Calm     79% 0 mm 7.0 W/m2
06:36 15.7 °C 11.9 °C 1008.4 hPa Calm   3.2 km/h 78% 0 mm 11.0 W/m2
06:46 15.8 °C 11.6 °C 1008.7 hPa Calm   3.2 km/h 76% 0 mm 14.0 W/m2
06:52 16 °C 12 °C 1008.7 hPa Calm   1.6 km/h 77% 0 mm 16.0 W/m2
06:57 16.1 °C 12.3 °C 1008.7 hPa ESE 3.2 km/h 4.8 km/h 78% 0 mm 18.0 W/m2
07:03 16.3 °C 11.9 °C 1008.7 hPa Calm   1.6 km/h 75% 0 mm 18.0 W/m2
07:08 16.6 °C 12.6 °C 1008.7 hPa ESE 3.2 km/h 4.8 km/h 77% 0 mm 19.0 W/m2
07:15 16.8 °C 11.9 °C 1008.7 hPa Calm   3.2 km/h 73% 0 mm 21.0 W/m2
07:20 17.1 °C 12 °C 1008.7 hPa ENE 1.4 km/h 3.2 km/h 72% 0 mm 23.0 W/m2
07:25 17.3 °C 11.8 °C 1008.7 hPa Calm   6.4 km/h 70% 0 mm 23.0 W/m2
07:35 17.8 °C 12.3 °C 1008.7 hPa Calm   3.2 km/h 70% 0 mm 26.0 W/m2
07:40 18.1 °C 12.5 °C 1008.7 hPa Calm   3.2 km/h 70% 0 mm 26.0 W/m2
07:50 18.6 °C 12.6 °C 1008.7 hPa Calm   1.6 km/h 68% 0 mm 171.0 W/m2
07:56 18.9 °C 12.9 °C 1008.7 hPa Calm   1.6 km/h 68% 0 mm 281.0 W/m2
08:01 19.3 °C 12.6 °C 1008.7 hPa Calm   1.6 km/h 65% 0 mm 334.0 W/m2
08:06 19.9 °C 12.6 °C 1008.7 hPa Calm     63% 0 mm 367.0 W/m2
08:12 20.6 °C 12.3 °C 1008.7 hPa Calm   1.6 km/h 59% 0 mm 396.0 W/m2
08:17 21 °C 11.1 °C 1008.7 hPa Calm   1.6 km/h 53% 0 mm 417.0 W/m2
08:22 21.6 °C 9.8 °C 1008.7 hPa Calm     47% 0 mm 436.0 W/m2
08:28 22.4 °C 9.9 °C 1008.7 hPa Calm     45% 0 mm 462.0 W/m2
08:37 24.1 °C 10.7 °C 1008.7 hPa Calm     43% 0 mm 497.0 W/m2
08:43 24.4 °C 9.9 °C 1008.7 hPa Calm     40% 0 mm 517.0 W/m2
08:48 24.7 °C 10.6 °C 1008.7 hPa Calm     41% 0 mm 536.0 W/m2
08:56 25.8 °C 10.8 °C 1008.7 hPa NW 1.4 km/h 3.2 km/h 39% 0 mm 568.0 W/m2
09:01 26.2 °C 10.4 °C 1008.7 hPa Calm   1.6 km/h 37% 0 mm 585.0 W/m2
09:10 26.4 °C 10.1 °C 1008.7 hPa Calm     36% 0 mm 617.0 W/m2
09:15 26.6 °C 11.1 °C 1008.7 hPa SW 3.2 km/h 4.8 km/h 38% 0 mm 636.0 W/m2
09:20 26.7 °C 10.8 °C 1008.7 hPa Calm   8 km/h 37% 0 mm 654.0 W/m2
09:25 26.8 °C 9.6 °C 1008.4 hPa SW 1.4 km/h 1.6 km/h 34% 0 mm 671.0 W/m2
09:30 27.2 °C 10.4 °C 1008.4 hPa Calm   1.6 km/h 35% 0 mm 689.0 W/m2
09:36 27.7 °C 10.8 °C 1008.4 hPa Calm   3.2 km/h 35% 0 mm 707.0 W/m2
09:41 28 °C 10.2 °C 1008.4 hPa SSE 3.2 km/h 4.8 km/h 33% 0 mm 721.0 W/m2
09:51 28.3 °C 10 °C 1008.4 hPa South 3.2 km/h 8 km/h 32% 0 mm 752.0 W/m2
09:56 28.6 °C 9.8 °C 1008.4 hPa ENE 6.4 km/h 8 km/h 31% 0 mm 775.0 W/m2
10:02 28.8 °C 10 °C 1008.4 hPa Calm   8 km/h 31% 0 mm 788.0 W/m2
10:07 29.1 °C 9.8 °C 1008.4 hPa Calm   1.6 km/h 30% 0 mm 803.0 W/m2
10:12 29.1 °C 9.3 °C 1008.4 hPa ESE 3.2 km/h 4.8 km/h 29% 0 mm 817.0 W/m2
10:19 29.2 °C 9.8 °C 1008.4 hPa NE 1.4 km/h 1.6 km/h 30% 0 mm 842.0 W/m2
10:24 29.2 °C 8.8 °C 1008.4 hPa West 1.4 km/h 3.2 km/h 28% 0 mm 856.0 W/m2
10:29 29.2 °C 8.8 °C 1008.4 hPa Calm   1.6 km/h 28% 0 mm 874.0 W/m2
10:34 29.3 °C 9.4 °C 1008.4 hPa East 3.2 km/h 4.8 km/h 29% 0 mm 909.0 W/m2
10:39 29.4 °C 9 °C 1008.4 hPa NNW 1.4 km/h 3.2 km/h 28% 0 mm 928.0 W/m2
10:50 29.9 °C 9.4 °C 1008.4 hPa NNW 7.9 km/h 8 km/h 28% 0 mm 956.0 W/m2
10:55 30.2 °C 9.7 °C 1008.4 hPa ESE 1.4 km/h 6.4 km/h 28% 0 mm 970.0 W/m2
11:00 30.4 °C 8.7 °C 1008.4 hPa Calm   4.8 km/h 26% 0 mm 976.0 W/m2
11:12 29.9 °C 10.4 °C 1008 hPa NE 6.4 km/h 6.4 km/h 30% 0 mm 997.0 W/m2
11:17 30.2 °C 8.6 °C 1008 hPa NNW 3.2 km/h 4.8 km/h 26% 0 mm 1041.0 W/m2
11:22 30.6 °C 8.9 °C 1008 hPa SE 1.4 km/h 3.2 km/h 26% 0 mm 1034.0 W/m2
11:28 30.7 °C 8.4 °C 1008 hPa NE 3.2 km/h 9.7 km/h 25% 0 mm 1078.0 W/m2
11:38 30.6 °C 8.3 °C 1007.7 hPa NE 3.2 km/h 16.1 km/h 25% 0 mm 1100.0 W/m2
11:43 30.7 °C 8.4 °C 1007.7 hPa SE 9.7 km/h 9.7 km/h 25% 0 mm 1104.0 W/m2
11:48 30.7 °C 9 °C 1007.7 hPa ENE 7.9 km/h 11.3 km/h 26% 0 mm 1109.0 W/m2
11:53 30.8 °C 9.1 °C 1007.7 hPa East 7.9 km/h 11.3 km/h 26% 0 mm 1116.0 W/m2
11:58 31.1 °C 7.5 °C 1007.7 hPa Calm   4.8 km/h 23% 0 mm 1127.0 W/m2
12:04 31.4 °C 9 °C 1007.7 hPa ESE 13 km/h 13 km/h 25% 0 mm 1146.0 W/m2
12:09 31.7 °C 7.4 °C 1007.7 hPa ENE 1.4 km/h 14.5 km/h 22% 0 mm 1134.0 W/m2
12:14 31.7 °C 8 °C 1007.7 hPa SE 6.4 km/h 17.7 km/h 23% 0 mm 244.0 W/m2
12:19 31.5 °C 7.9 °C 1007.7 hPa NNE 1.4 km/h 11.3 km/h 23% 0 mm 1167.0 W/m2
12:24 31.4 °C 7.8 °C 1007.3 hPa SE 6.4 km/h 16.1 km/h 23% 0 mm 186.0 W/m2
12:29 31.2 °C 8.2 °C 1007.7 hPa East 7.9 km/h 19.3 km/h 24% 0 mm 1311.0 W/m2
12:44 30.9 °C 7.4 °C 1007.3 hPa ENE 1.4 km/h 4.8 km/h 23% 0 mm 304.0 W/m2
12:50 30.9 °C 8.6 °C 1007.3 hPa ENE 4.7 km/h 14.5 km/h 25% 0 mm 1311.0 W/m2
12:55 31.3 °C 7.7 °C 1007.3 hPa ESE 3.2 km/h 14.5 km/h 23% 0 mm 1259.0 W/m2
13:00 31.3 °C 7.7 °C 1007.3 hPa NNE 4.7 km/h 9.7 km/h 23% 0 mm 288.0 W/m2
13:05 31.2 °C 7.6 °C 1007.3 hPa South 1.4 km/h 12.9 km/h 23% 0 mm 369.0 W/m2
13:10 31.4 °C 8.4 °C 1007.3 hPa NNE 6.4 km/h 17.7 km/h 24% 0 mm 1327.0 W/m2
13:15 31.4 °C 8.4 °C 1007.3 hPa Calm   11.3 km/h 24% 0 mm 304.0 W/m2
13:20 31.2 °C 8.8 °C 1007.3 hPa SE 11.1 km/h 12.9 km/h 25% 0 mm 1234.0 W/m2
13:25 31.5 °C 7.9 °C 1007.3 hPa SSE 4.7 km/h 12.9 km/h 23% 0 mm 1227.0 W/m2
13:30 31.8 °C 8.7 °C 1007 hPa East 1.4 km/h 9.7 km/h 24% 0 mm 1288.0 W/m2
13:36 31.8 °C 8.1 °C 1007 hPa Calm   6.4 km/h 23% 0 mm 357.0 W/m2
13:41 31.8 °C 8.7 °C 1007 hPa NE 4.7 km/h 9.7 km/h 24% 0 mm 1288.0 W/m2
13:46 31.8 °C 8.1 °C 1007 hPa NNE 4.7 km/h 11.3 km/h 23% 0 mm 316.0 W/m2
13:51 31.8 °C 8.7 °C 1007 hPa Calm   4.8 km/h 24% 0 mm 366.0 W/m2
13:56 31.7 °C 9.8 °C 1007 hPa Calm   4.8 km/h 26% 0 mm 445.0 W/m2
14:01 31.8 °C 8.1 °C 1006.7 hPa NNE 1.4 km/h 8 km/h 23% 0 mm 585.0 W/m2
14:06 31.8 °C 8.1 °C 1006.7 hPa Calm   3.2 km/h 23% 0 mm 403.0 W/m2
14:11 31.6 °C 8.6 °C 1006.7 hPa South 6.4 km/h 12.9 km/h 24% 0 mm 341.0 W/m2
14:16 31.4 °C 7.8 °C 1006.3 hPa East 6.4 km/h 17.7 km/h 23% 0 mm 346.0 W/m2
14:22 31.4 °C 8.4 °C 1006.3 hPa NNW 6.4 km/h 6.4 km/h 24% 0 mm 373.0 W/m2
14:27 31.4 °C 8.4 °C 1006.7 hPa ENE 4.7 km/h 12.9 km/h 24% 0 mm 404.0 W/m2
14:32 31.9 °C 8.2 °C 1006.3 hPa NNE 4.7 km/h 11.3 km/h 23% 0 mm 1304.0 W/m2
14:43 32.5 °C 8 °C 1006.3 hPa SSE 6.4 km/h 12.9 km/h 22% 0 mm 424.0 W/m2
14:49 32.5 °C 8.7 °C 1006.3 hPa ENE 3.2 km/h 11.3 km/h 23% 0 mm 1109.0 W/m2
14:58 32.9 °C 8.4 °C 1006 hPa SE 16.3 km/h 16.3 km/h 22% 0 mm 1021.0 W/m2
15:03 33.1 °C 7.8 °C 1006 hPa NNE 6.4 km/h 14.5 km/h 21% 0 mm 1016.0 W/m2
15:12 33.2 °C 7.9 °C 1005.6 hPa ESE 6.4 km/h 16.1 km/h 21% 0 mm 1065.0 W/m2
15:17 33.1 °C 7.8 °C 1005.6 hPa NNE 1.4 km/h 17.7 km/h 21% 0 mm 257.0 W/m2
15:22 32.7 °C 8.2 °C 1005.6 hPa NE 3.2 km/h 11.3 km/h 22% 0 mm 181.0 W/m2
15:27 32.5 °C 8.7 °C 1005.6 hPa NE 7.9 km/h 22.5 km/h 23% 0 mm 933.0 W/m2
15:32 32.7 °C 8.2 °C 1005.6 hPa East 3.2 km/h 14.5 km/h 22% 0 mm 949.0 W/m2
15:43 32.9 °C 8.4 °C 1005 hPa SE 6.4 km/h 17.7 km/h 22% 0 mm 902.0 W/m2
15:48 33.3 °C 8.7 °C 1005 hPa SE 3.2 km/h 14.5 km/h 22% 0 mm 889.0 W/m2
15:53 33.4 °C 8.1 °C 1005 hPa SSE 3.2 km/h 4.8 km/h 21% 0 mm 847.0 W/m2
15:59 33.6 °C 8.9 °C 1004.6 hPa SE 9.7 km/h 12.9 km/h 22% 0 mm 844.0 W/m2
16:09 33.4 °C 8.8 °C 1004.6 hPa SSE 4.7 km/h 4.8 km/h 22% 0 mm 812.0 W/m2
16:14 33.6 °C 8.9 °C 1004.6 hPa ESE 3.2 km/h 8 km/h 22% 0 mm 364.0 W/m2
16:19 33.3 °C 8 °C 1004.6 hPa NE 1.4 km/h 16.1 km/h 21% 0 mm 142.0 W/m2
16:29 32.4 °C 8 °C 1004.3 hPa Calm   6.4 km/h 22% 0 mm 142.0 W/m2
16:39 32.7 °C 8.9 °C 1004.3 hPa NE 4.7 km/h 6.4 km/h 23% 0 mm 714.0 W/m2
16:45 33.1 °C 8.5 °C 1004.3 hPa ENE 6.4 km/h 14.5 km/h 22% 0 mm 148.0 W/m2
16:50 32.7 °C 8.2 °C 1004.3 hPa Calm   16.1 km/h 22% 0 mm 83.0 W/m2
16:55 32.2 °C 8.4 °C 1004.3 hPa ENE 3.2 km/h 14.5 km/h 23% 0 mm 49.0 W/m2
17:00 31.7 °C 8 °C 1003.9 hPa East 3.2 km/h 9.7 km/h 23% 0 mm 40.0 W/m2
17:05 31.2 °C 7.6 °C 1003.9 hPa ENE 1.4 km/h 6.4 km/h 23% 0 mm 39.0 W/m2
17:10 31 °C 8.1 °C 1003.9 hPa ENE 1.4 km/h 8 km/h 24% 0 mm 47.0 W/m2
17:15 30.8 °C 7.3 °C 1003.9 hPa Calm   4.8 km/h 23% 0 mm 62.0 W/m2
17:25 30.6 °C 8.3 °C 1003.9 hPa Calm   6.4 km/h 25% 0 mm 125.0 W/m2
17:30 30.7 °C 8.4 °C 1003.9 hPa Calm   1.6 km/h 25% 0 mm 512.0 W/m2
17:38 31 °C 8.7 °C 1003.6 hPa WNW 1.4 km/h 1.6 km/h 25% 0 mm 155.0 W/m2
17:48 30.9 °C 8 °C 1003.6 hPa SE 4.7 km/h 6.4 km/h 24% 0 mm 169.0 W/m2
17:53 31.1 °C 8.1 °C 1003.6 hPa ESE 3.2 km/h 9.7 km/h 24% 0 mm 434.0 W/m2
17:58 31.3 °C 8.3 °C 1003.6 hPa Calm   8 km/h 24% 0 mm 90.0 W/m2
18:03 31.3 °C 8.3 °C 1003.6 hPa SE 1.4 km/h 6.4 km/h 24% 0 mm 60.0 W/m2
18:11 31.1 °C 8.1 °C 1003.6 hPa Calm   11.3 km/h 24% 0 mm 40.0 W/m2
18:16 30.8 °C 8.5 °C 1003.6 hPa Calm   8 km/h 25% 0 mm 35.0 W/m2
18:21 30.6 °C 7.7 °C 1003.6 hPa ENE 3.2 km/h 9.7 km/h 24% 0 mm 44.0 W/m2
18:26 30.4 °C 8.2 °C 1003.3 hPa Calm   1.6 km/h 25% 0 mm 65.0 W/m2
18:32 30.6 °C 8.3 °C 1003.6 hPa Calm   3.2 km/h 25% 0 mm 220.0 W/m2
18:37 30.9 °C 8 °C 1003.3 hPa NE 3.2 km/h 6.4 km/h 24% 0 mm 200.0 W/m2
18:42 31.2 °C 7.6 °C 1003.3 hPa ENE 4.7 km/h 8 km/h 23% 0 mm 51.0 W/m2
18:47 31.2 °C 8.2 °C 1003.3 hPa NNE 1.4 km/h 3.2 km/h 24% 0 mm 40.0 W/m2
18:52 30.9 °C 8 °C 1003.3 hPa NNE 3.2 km/h 6.4 km/h 24% 0 mm 23.0 W/m2
18:57 30.7 °C 7.8 °C 1003.3 hPa NE 3.2 km/h 3.2 km/h 24% 0 mm 32.0 W/m2
19:02 30.6 °C 8.3 °C 1003.6 hPa Calm   1.6 km/h 25% 0 mm 33.0 W/m2
19:07 30.5 °C 8.2 °C 1003.9 hPa SE 1.4 km/h 3.2 km/h 25% 0 mm 39.0 W/m2
19:13 30.1 °C 6.7 °C 1003.9 hPa ENE 17.7 km/h 25.7 km/h 23% 0 mm 40.0 W/m2
19:18 29.3 °C 6.6 °C 1003.9 hPa East 14.3 km/h 22.5 km/h 24% 0 mm 28.0 W/m2
19:23 28.9 °C 6.9 °C 1003.9 hPa SE 4.7 km/h 25.7 km/h 25% 0 mm 18.0 W/m2
19:28 28.5 °C 7.1 °C 1003.9 hPa East 7.9 km/h 22.5 km/h 26% 0 mm 11.0 W/m2
19:33 28.2 °C 6.9 °C 1003.9 hPa North 1.4 km/h 4.8 km/h 26% 0 mm 5.0 W/m2
19:43 27.8 °C 7.1 °C 1004.3 hPa Calm   1.6 km/h 27% 0 mm 0.0 W/m2
19:49 27.6 °C 9.9 °C 1004.6 hPa WSW 4.7 km/h 11.3 km/h 33% 0 mm 0.0 W/m2
19:57 27.1 °C 10.7 °C 1004.6 hPa Calm   8 km/h 36% 0 mm 0.0 W/m2
20:02 26.8 °C 10.5 °C 1004.6 hPa WSW 7.9 km/h 11.3 km/h 36% 0 mm 0.0 W/m2
20:08 26.6 °C 10.7 °C 1004.6 hPa WSW 4.7 km/h 6.4 km/h 37% 0 mm 0.0 W/m2
20:13 26.4 °C 10.1 °C 1004.6 hPa Calm   3.2 km/h 36% 0 mm 0.0 W/m2
20:18 26.2 °C 10.4 °C 1004.6 hPa Calm     37% 0 mm 0.0 W/m2
20:23 26.1 °C 10.7 °C 1004.6 hPa Calm   3.2 km/h 38% 0 mm 0.0 W/m2
20:33 25.6 °C 11 °C 1004.6 hPa NNW 3.2 km/h 8 km/h 40% 0 mm 0.0 W/m2
20:40 25.3 °C 11.1 °C 1005 hPa Calm   3.2 km/h 41% 0 mm 0.0 W/m2
20:45 25.1 °C 11.3 °C 1004.6 hPa Calm   1.6 km/h 42% 0 mm 0.0 W/m2
20:50 24.9 °C 11.1 °C 1005 hPa NW 6.4 km/h 6.4 km/h 42% 0 mm 0.0 W/m2
20:55 24.7 °C 10.9 °C 1005 hPa Calm     42% 0 mm 0.0 W/m2
21:03 24.6 °C 10.8 °C 1005 hPa Calm   4.8 km/h 42% 0 mm 0.0 W/m2
21:08 24.5 °C 11.1 °C 1005 hPa Calm   1.6 km/h 43% 0 mm 0.0 W/m2
21:13 24.5 °C 13.7 °C 1005 hPa Calm     51% 0 mm 0.0 W/m2
21:18 24.3 °C 13.5 °C 1005.3 hPa Calm     51% 0 mm 0.0 W/m2
21:23 24 °C 14.1 °C 1005 hPa SSW 4.7 km/h 4.8 km/h 54% 0 mm 0.0 W/m2
21:37 23.3 °C 14 °C 1005.3 hPa Calm   1.6 km/h 56% 0 mm 0.0 W/m2
21:43 23.1 °C 13.8 °C 1005.3 hPa Calm     56% 0 mm 0.0 W/m2
21:48 22.9 °C 13.4 °C 1005.3 hPa Calm   3.2 km/h 55% 0 mm 0.0 W/m2
21:53 22.7 °C 13.2 °C 1005.6 hPa Calm   3.2 km/h 55% 0 mm 0.0 W/m2
21:58 22.6 °C 13.1 °C 1005.3 hPa Calm   3.2 km/h 55% 0 mm 0.0 W/m2
22:04 22.4 °C 13.2 °C 1005.6 hPa ENE 1.4 km/h 1.6 km/h 56% 0 mm 0.0 W/m2
22:09 22.2 °C 13 °C 1005.6 hPa Calm     56% 0 mm 0.0 W/m2
22:14 22.2 °C 13 °C 1005.6 hPa Calm   1.6 km/h 56% 0 mm 0.0 W/m2
22:22 21.9 °C 12.7 °C 1006 hPa ENE 1.4 km/h 4.8 km/h 56% 0 mm 0.0 W/m2
22:27 21.8 °C 12.6 °C 1006 hPa Calm     56% 0 mm 0.0 W/m2
22:33 21.7 °C 12.8 °C 1006 hPa Calm     57% 0 mm 0.0 W/m2
22:38 21.7 °C 12.8 °C 1006 hPa Calm     57% 0 mm 0.0 W/m2
22:43 21.6 °C 13 °C 1006 hPa Calm     58% 0 mm 0.0 W/m2
22:48 21.5 °C 13.1 °C 1006 hPa Calm     59% 0 mm 0.0 W/m2
22:53 21.4 °C 12.8 °C 1006.3 hPa Calm     58% 0 mm 0.0 W/m2
22:58 21.3 °C 13.2 °C 1006.3 hPa Calm     60% 0 mm 0.0 W/m2
23:03 21.3 °C 13.2 °C 1006.3 hPa Calm     60% 0 mm 0.0 W/m2
23:14 21.2 °C 13.4 °C 1006.3 hPa Calm     61% 0 mm 0.0 W/m2
23:30 20.9 °C 13.1 °C 1006.3 hPa Calm     61% 0 mm 0.0 W/m2
23:35 20.8 °C 12.7 °C 1006.3 hPa Calm     60% 0 mm 0.0 W/m2
23:40 20.8 °C 12.7 °C 1006.3 hPa Calm     60% 0 mm 0.0 W/m2
23:45 20.7 °C 12.4 °C 1006 hPa Calm     59% 0 mm 0.0 W/m2
23:51 20.7 °C 13.2 °C 1006.3 hPa Calm     62% 0 mm 0.0 W/m2
23:57 20.7 °C 12.9 °C 1006.3 hPa Calm     61% 0 mm 0.0 W/m2
Olympia, Windhoek, Namibia
Compliments of Weather Underground - 3 mb